sensor_id;sensor_type;location;lat;lon;timestamp;temperature;humidity
51914;DHT22;37940;53.002;6.930;2023-02-05T00:00:38;2.90;99.90
51914;DHT22;37940;53.002;6.930;2023-02-05T00:03:04;2.90;99.90
51914;DHT22;37940;53.002;6.930;2023-02-05T00:05:30;2.90;99.90
51914;DHT22;37940;53.002;6.930;2023-02-05T00:07:56;3.20;99.90
51914;DHT22;37940;53.002;6.930;2023-02-05T00:10:21;2.90;99.90
51914;DHT22;37940;53.002;6.930;2023-02-05T00:12:47;2.90;99.90
51914;DHT22;37940;53.002;6.930;2023-02-05T00:15:13;2.90;99.90
51914;DHT22;37940;53.002;6.930;2023-02-05T00:17:39;2.90;99.90
51914;DHT22;37940;53.002;6.930;2023-02-05T00:20:05;2.90;99.90
51914;DHT22;37940;53.002;6.930;2023-02-05T00:22:31;2.90;99.90
51914;DHT22;37940;53.002;6.930;2023-02-05T00:24:57;3.00;99.90
51914;DHT22;37940;53.002;6.930;2023-02-05T00:27:23;2.90;99.90
51914;DHT22;37940;53.002;6.930;2023-02-05T00:29:52;3.00;99.90
51914;DHT22;37940;53.002;6.930;2023-02-05T00:32:18;3.00;99.90
51914;DHT22;37940;53.002;6.930;2023-02-05T00:34:43;3.00;99.90
51914;DHT22;37940;53.002;6.930;2023-02-05T00:37:09;3.00;99.90
51914;DHT22;37940;53.002;6.930;2023-02-05T00:39:35;3.00;99.90
51914;DHT22;37940;53.002;6.930;2023-02-05T00:42:01;3.00;99.90
51914;DHT22;37940;53.002;6.930;2023-02-05T00:44:26;3.00;99.90
51914;DHT22;37940;53.002;6.930;2023-02-05T00:46:52;3.00;99.90
51914;DHT22;37940;53.002;6.930;2023-02-05T00:49:18;3.20;99.90
51914;DHT22;37940;53.002;6.930;2023-02-05T00:51:44;3.10;99.90
51914;DHT22;37940;53.002;6.930;2023-02-05T00:54:09;3.20;99.90
51914;DHT22;37940;53.002;6.930;2023-02-05T00:56:35;3.10;99.90
51914;DHT22;37940;53.002;6.930;2023-02-05T00:59:01;3.10;99.90
51914;DHT22;37940;53.002;6.930;2023-02-05T01:01:27;3.10;99.90
51914;DHT22;37940;53.002;6.930;2023-02-05T01:03:53;3.10;99.90
51914;DHT22;37940;53.002;6.930;2023-02-05T01:06:19;3.20;99.90
51914;DHT22;37940;53.002;6.930;2023-02-05T01:08:45;3.20;99.90
51914;DHT22;37940;53.002;6.930;2023-02-05T01:11:11;3.20;99.90
51914;DHT22;37940;53.002;6.930;2023-02-05T01:13:38;3.20;99.90
51914;DHT22;37940;53.002;6.930;2023-02-05T01:16:04;3.20;99.90
51914;DHT22;37940;53.002;6.930;2023-02-05T01:18:31;3.20;99.90
51914;DHT22;37940;53.002;6.930;2023-02-05T01:20:56;3.20;99.90
51914;DHT22;37940;53.002;6.930;2023-02-05T01:23:23;3.20;99.90
51914;DHT22;37940;53.002;6.930;2023-02-05T01:25:52;3.20;99.90
51914;DHT22;37940;53.002;6.930;2023-02-05T01:28:18;3.20;99.90
51914;DHT22;37940;53.002;6.930;2023-02-05T01:30:48;3.20;99.90
51914;DHT22;37940;53.002;6.930;2023-02-05T01:33:14;3.20;99.90
51914;DHT22;37940;53.002;6.930;2023-02-05T01:35:40;3.30;99.90
51914;DHT22;37940;53.002;6.930;2023-02-05T01:38:12;3.20;99.90
51914;DHT22;37940;53.002;6.930;2023-02-05T01:40:40;3.20;99.90
51914;DHT22;37940;53.002;6.930;2023-02-05T01:43:16;3.50;99.90
51914;DHT22;37940;53.002;6.930;2023-02-05T01:46:20;3.30;99.90
51914;DHT22;37940;53.002;6.930;2023-02-05T01:48:52;3.30;99.90
51914;DHT22;37940;53.002;6.930;2023-02-05T01:51:19;3.30;99.90
51914;DHT22;37940;53.002;6.930;2023-02-05T01:53:47;3.30;99.90
51914;DHT22;37940;53.002;6.930;2023-02-05T01:56:20;3.30;99.90
51914;DHT22;37940;53.002;6.930;2023-02-05T01:58:59;3.30;99.90
51914;DHT22;37940;53.002;6.930;2023-02-05T02:01:27;3.30;99.90
51914;DHT22;37940;53.002;6.930;2023-02-05T02:03:54;3.30;99.90
51914;DHT22;37940;53.002;6.930;2023-02-05T02:06:22;3.30;99.90
51914;DHT22;37940;53.002;6.930;2023-02-05T02:08:48;3.40;99.90
51914;DHT22;37940;53.002;6.930;2023-02-05T02:11:15;3.30;99.90
51914;DHT22;37940;53.002;6.930;2023-02-05T02:13:43;3.40;99.90
51914;DHT22;37940;53.002;6.930;2023-02-05T02:16:10;3.40;99.90
51914;DHT22;37940;53.002;6.930;2023-02-05T02:18:37;3.40;99.90
51914;DHT22;37940;53.002;6.930;2023-02-05T02:21:11;3.40;99.90
51914;DHT22;37940;53.002;6.930;2023-02-05T02:26:30;3.40;99.90
51914;DHT22;37940;53.002;6.930;2023-02-05T02:28:59;3.40;99.90
51914;DHT22;37940;53.002;6.930;2023-02-05T02:31:28;3.40;99.90
51914;DHT22;37940;53.002;6.930;2023-02-05T02:39:40;3.50;99.90
51914;DHT22;37940;53.002;6.930;2023-02-05T02:42:19;3.40;99.90
51914;DHT22;37940;53.002;6.930;2023-02-05T02:44:59;3.50;99.90
51914;DHT22;37940;53.002;6.930;2023-02-05T02:47:31;3.40;99.90
51914;DHT22;37940;53.002;6.930;2023-02-05T02:50:02;3.40;99.90
51914;DHT22;37940;53.002;6.930;2023-02-05T02:52:34;3.50;99.90
51914;DHT22;37940;53.002;6.930;2023-02-05T02:55:02;3.40;99.90
51914;DHT22;37940;53.002;6.930;2023-02-05T02:57:34;3.50;99.90
51914;DHT22;37940;53.002;6.930;2023-02-05T03:00:12;3.40;99.90
51914;DHT22;37940;53.002;6.930;2023-02-05T03:02:40;3.50;99.90
51914;DHT22;37940;53.002;6.930;2023-02-05T03:05:12;3.50;99.90
51914;DHT22;37940;53.002;6.930;2023-02-05T03:07:43;3.50;99.90
51914;DHT22;37940;53.002;6.930;2023-02-05T03:10:13;3.50;99.90
51914;DHT22;37940;53.002;6.930;2023-02-05T03:12:41;3.50;99.90
51914;DHT22;37940;53.002;6.930;2023-02-05T03:15:08;3.50;99.90
51914;DHT22;37940;53.002;6.930;2023-02-05T03:17:35;3.50;99.90
51914;DHT22;37940;53.002;6.930;2023-02-05T03:20:11;3.50;99.90
51914;DHT22;37940;53.002;6.930;2023-02-05T03:22:40;3.50;99.90
51914;DHT22;37940;53.002;6.930;2023-02-05T03:25:06;4.20;99.90
51914;DHT22;37940;53.002;6.930;2023-02-05T03:27:33;3.60;99.90
51914;DHT22;37940;53.002;6.930;2023-02-05T03:29:59;3.60;99.90
51914;DHT22;37940;53.002;6.930;2023-02-05T03:35:21;3.60;99.90
51914;DHT22;37940;53.002;6.930;2023-02-05T03:40:44;3.60;99.90
51914;DHT22;37940;53.002;6.930;2023-02-05T03:51:55;3.80;99.90
51914;DHT22;37940;53.002;6.930;2023-02-05T03:54:31;3.80;99.90
51914;DHT22;37940;53.002;6.930;2023-02-05T03:57:23;3.80;99.90
51914;DHT22;37940;53.002;6.930;2023-02-05T03:59:52;3.80;99.90
51914;DHT22;37940;53.002;6.930;2023-02-05T04:02:19;3.90;99.90
51914;DHT22;37940;53.002;6.930;2023-02-05T04:04:45;3.90;99.90
51914;DHT22;37940;53.002;6.930;2023-02-05T04:07:11;3.90;99.90
51914;DHT22;37940;53.002;6.930;2023-02-05T04:09:37;4.00;99.90
51914;DHT22;37940;53.002;6.930;2023-02-05T04:12:03;3.90;99.90
51914;DHT22;37940;53.002;6.930;2023-02-05T04:14:28;4.00;99.90
51914;DHT22;37940;53.002;6.930;2023-02-05T04:16:54;4.00;99.90
51914;DHT22;37940;53.002;6.930;2023-02-05T04:19:20;4.00;99.90
51914;DHT22;37940;53.002;6.930;2023-02-05T04:21:46;4.00;99.90
51914;DHT22;37940;53.002;6.930;2023-02-05T04:24:11;4.10;99.90
51914;DHT22;37940;53.002;6.930;2023-02-05T04:26:37;4.10;99.90
51914;DHT22;37940;53.002;6.930;2023-02-05T04:29:03;4.10;99.90
51914;DHT22;37940;53.002;6.930;2023-02-05T04:31:29;4.10;99.90
51914;DHT22;37940;53.002;6.930;2023-02-05T04:33:54;4.20;99.90
51914;DHT22;37940;53.002;6.930;2023-02-05T04:36:20;4.50;99.90
51914;DHT22;37940;53.002;6.930;2023-02-05T04:38:46;4.20;99.90
51914;DHT22;37940;53.002;6.930;2023-02-05T04:41:12;4.20;99.90
51914;DHT22;37940;53.002;6.930;2023-02-05T04:43:37;4.20;99.90
51914;DHT22;37940;53.002;6.930;2023-02-05T04:46:07;4.20;99.90
51914;DHT22;37940;53.002;6.930;2023-02-05T04:48:33;4.50;99.90
51914;DHT22;37940;53.002;6.930;2023-02-05T04:51:04;4.30;99.90
51914;DHT22;37940;53.002;6.930;2023-02-05T04:53:29;4.50;99.90
51914;DHT22;37940;53.002;6.930;2023-02-05T04:56:04;4.30;99.90
51914;DHT22;37940;53.002;6.930;2023-02-05T04:58:30;3.90;99.90
51914;DHT22;37940;53.002;6.930;2023-02-05T05:00:56;4.40;99.90
51914;DHT22;37940;53.002;6.930;2023-02-05T05:03:21;4.40;99.90
51914;DHT22;37940;53.002;6.930;2023-02-05T05:05:47;4.40;99.90
51914;DHT22;37940;53.002;6.930;2023-02-05T05:08:13;4.50;99.90
51914;DHT22;37940;53.002;6.930;2023-02-05T05:10:39;4.50;99.90
51914;DHT22;37940;53.002;6.930;2023-02-05T05:13:04;4.50;99.90
51914;DHT22;37940;53.002;6.930;2023-02-05T05:15:30;4.50;99.90
51914;DHT22;37940;53.002;6.930;2023-02-05T05:17:56;4.50;99.90
51914;DHT22;37940;53.002;6.930;2023-02-05T05:20:22;4.50;99.90
51914;DHT22;37940;53.002;6.930;2023-02-05T05:22:47;4.60;99.90
51914;DHT22;37940;53.002;6.930;2023-02-05T05:25:13;4.60;99.90
51914;DHT22;37940;53.002;6.930;2023-02-05T05:27:39;4.60;99.90
51914;DHT22;37940;53.002;6.930;2023-02-05T05:30:05;4.60;99.90
51914;DHT22;37940;53.002;6.930;2023-02-05T05:32:31;4.60;99.90
51914;DHT22;37940;53.002;6.930;2023-02-05T05:34:57;4.60;99.90
51914;DHT22;37940;53.002;6.930;2023-02-05T05:37:23;4.60;99.90
51914;DHT22;37940;53.002;6.930;2023-02-05T05:39:49;4.70;99.90
51914;DHT22;37940;53.002;6.930;2023-02-05T05:42:33;4.70;99.90
51914;DHT22;37940;53.002;6.930;2023-02-05T05:45:17;4.70;99.90
51914;DHT22;37940;53.002;6.930;2023-02-05T05:47:43;4.70;99.90
51914;DHT22;37940;53.002;6.930;2023-02-05T05:50:09;4.70;99.90
51914;DHT22;37940;53.002;6.930;2023-02-05T05:52:34;4.70;99.90
51914;DHT22;37940;53.002;6.930;2023-02-05T05:55:00;4.80;99.90
51914;DHT22;37940;53.002;6.930;2023-02-05T05:57:26;4.80;99.90
51914;DHT22;37940;53.002;6.930;2023-02-05T05:59:52;4.80;99.90
51914;DHT22;37940;53.002;6.930;2023-02-05T06:02:17;4.80;99.90
51914;DHT22;37940;53.002;6.930;2023-02-05T06:04:43;4.90;99.90
51914;DHT22;37940;53.002;6.930;2023-02-05T06:07:09;4.90;99.90
51914;DHT22;37940;53.002;6.930;2023-02-05T06:09:35;4.90;99.90
51914;DHT22;37940;53.002;6.930;2023-02-05T06:12:00;5.00;99.90
51914;DHT22;37940;53.002;6.930;2023-02-05T06:14:26;5.00;99.90
51914;DHT22;37940;53.002;6.930;2023-02-05T06:16:52;5.10;99.90
51914;DHT22;37940;53.002;6.930;2023-02-05T06:19:21;5.10;99.90
51914;DHT22;37940;53.002;6.930;2023-02-05T06:21:46;5.20;99.90
51914;DHT22;37940;53.002;6.930;2023-02-05T06:24:12;5.30;99.90
51914;DHT22;37940;53.002;6.930;2023-02-05T06:26:38;5.30;99.90
51914;DHT22;37940;53.002;6.930;2023-02-05T06:29:04;5.40;99.90
51914;DHT22;37940;53.002;6.930;2023-02-05T06:31:30;5.40;99.90
51914;DHT22;37940;53.002;6.930;2023-02-05T06:33:56;5.40;99.90
51914;DHT22;37940;53.002;6.930;2023-02-05T06:36:22;5.50;99.90
51914;DHT22;37940;53.002;6.930;2023-02-05T06:38:48;5.50;99.90
51914;DHT22;37940;53.002;6.930;2023-02-05T06:41:13;5.50;99.90
51914;DHT22;37940;53.002;6.930;2023-02-05T06:43:39;5.50;99.90
51914;DHT22;37940;53.002;6.930;2023-02-05T06:46:05;5.50;99.90
51914;DHT22;37940;53.002;6.930;2023-02-05T06:48:30;5.50;99.90
51914;DHT22;37940;53.002;6.930;2023-02-05T06:50:56;5.40;99.90
51914;DHT22;37940;53.002;6.930;2023-02-05T06:53:22;5.40;99.90
51914;DHT22;37940;53.002;6.930;2023-02-05T06:55:48;5.40;99.90
51914;DHT22;37940;53.002;6.930;2023-02-05T06:58:14;5.40;99.90
51914;DHT22;37940;53.002;6.930;2023-02-05T07:00:43;5.30;99.90
51914;DHT22;37940;53.002;6.930;2023-02-05T07:03:08;5.30;99.90
51914;DHT22;37940;53.002;6.930;2023-02-05T07:05:34;5.30;99.90
51914;DHT22;37940;53.002;6.930;2023-02-05T07:08:00;5.30;99.90
51914;DHT22;37940;53.002;6.930;2023-02-05T07:10:31;5.30;99.90
51914;DHT22;37940;53.002;6.930;2023-02-05T07:12:57;5.20;99.90
51914;DHT22;37940;53.002;6.930;2023-02-05T07:15:23;5.20;99.90
51914;DHT22;37940;53.002;6.930;2023-02-05T07:17:49;5.20;99.90
51914;DHT22;37940;53.002;6.930;2023-02-05T07:20:15;5.20;99.90
51914;DHT22;37940;53.002;6.930;2023-02-05T07:22:41;5.20;99.90
51914;DHT22;37940;53.002;6.930;2023-02-05T07:25:07;5.20;99.90
51914;DHT22;37940;53.002;6.930;2023-02-05T07:27:33;5.30;99.90
51914;DHT22;37940;53.002;6.930;2023-02-05T07:29:58;5.30;99.90
51914;DHT22;37940;53.002;6.930;2023-02-05T07:32:24;5.30;99.90
51914;DHT22;37940;53.002;6.930;2023-02-05T07:34:50;5.30;99.90
51914;DHT22;37940;53.002;6.930;2023-02-05T07:37:16;5.30;99.90
51914;DHT22;37940;53.002;6.930;2023-02-05T07:39:42;5.30;99.90
51914;DHT22;37940;53.002;6.930;2023-02-05T07:42:08;5.30;99.90
51914;DHT22;37940;53.002;6.930;2023-02-05T07:44:33;5.30;99.90
51914;DHT22;37940;53.002;6.930;2023-02-05T07:46:59;5.30;99.90
51914;DHT22;37940;53.002;6.930;2023-02-05T07:49:25;5.30;99.90
51914;DHT22;37940;53.002;6.930;2023-02-05T07:51:51;5.30;99.90
51914;DHT22;37940;53.002;6.930;2023-02-05T07:54:17;5.30;99.90
51914;DHT22;37940;53.002;6.930;2023-02-05T07:56:43;5.40;99.90
51914;DHT22;37940;53.002;6.930;2023-02-05T07:59:09;5.30;99.90
51914;DHT22;37940;53.002;6.930;2023-02-05T08:01:34;5.40;99.90
51914;DHT22;37940;53.002;6.930;2023-02-05T08:04:00;5.40;99.90
51914;DHT22;37940;53.002;6.930;2023-02-05T08:06:26;5.50;99.90
51914;DHT22;37940;53.002;6.930;2023-02-05T08:08:52;5.50;99.90
51914;DHT22;37940;53.002;6.930;2023-02-05T08:11:20;5.60;99.90
51914;DHT22;37940;53.002;6.930;2023-02-05T08:13:46;5.60;99.90
51914;DHT22;37940;53.002;6.930;2023-02-05T08:16:13;5.70;99.90
51914;DHT22;37940;53.002;6.930;2023-02-05T08:18:45;5.70;99.90
51914;DHT22;37940;53.002;6.930;2023-02-05T08:21:12;5.70;99.90
51914;DHT22;37940;53.002;6.930;2023-02-05T08:23:38;5.80;99.90
51914;DHT22;37940;53.002;6.930;2023-02-05T08:26:04;5.80;99.90
51914;DHT22;37940;53.002;6.930;2023-02-05T08:28:29;5.90;99.90
51914;DHT22;37940;53.002;6.930;2023-02-05T08:30:55;5.90;99.90
51914;DHT22;37940;53.002;6.930;2023-02-05T08:33:22;5.90;99.90
51914;DHT22;37940;53.002;6.930;2023-02-05T08:35:48;6.00;99.90
51914;DHT22;37940;53.002;6.930;2023-02-05T08:38:13;6.00;99.90
51914;DHT22;37940;53.002;6.930;2023-02-05T08:40:39;6.10;99.90
51914;DHT22;37940;53.002;6.930;2023-02-05T08:43:05;6.10;99.90
51914;DHT22;37940;53.002;6.930;2023-02-05T08:45:33;6.20;99.90
51914;DHT22;37940;53.002;6.930;2023-02-05T08:47:59;6.20;99.90
51914;DHT22;37940;53.002;6.930;2023-02-05T08:50:25;6.30;99.90
51914;DHT22;37940;53.002;6.930;2023-02-05T08:52:51;6.30;99.90
51914;DHT22;37940;53.002;6.930;2023-02-05T08:55:16;6.30;99.90
51914;DHT22;37940;53.002;6.930;2023-02-05T08:57:42;6.40;99.90
51914;DHT22;37940;53.002;6.930;2023-02-05T09:00:09;6.40;99.90
51914;DHT22;37940;53.002;6.930;2023-02-05T09:02:35;6.50;99.90
51914;DHT22;37940;53.002;6.930;2023-02-05T09:05:01;6.50;99.90
51914;DHT22;37940;53.002;6.930;2023-02-05T09:07:26;6.60;99.90
51914;DHT22;37940;53.002;6.930;2023-02-05T09:09:52;6.60;99.90
51914;DHT22;37940;53.002;6.930;2023-02-05T09:12:18;6.60;99.90
51914;DHT22;37940;53.002;6.930;2023-02-05T09:14:44;6.60;99.90
51914;DHT22;37940;53.002;6.930;2023-02-05T09:17:10;6.50;99.90
51914;DHT22;37940;53.002;6.930;2023-02-05T09:19:39;6.50;99.90
51914;DHT22;37940;53.002;6.930;2023-02-05T09:22:06;6.50;99.90
51914;DHT22;37940;53.002;6.930;2023-02-05T09:24:32;6.50;99.90
51914;DHT22;37940;53.002;6.930;2023-02-05T09:26:58;6.50;99.90
51914;DHT22;37940;53.002;6.930;2023-02-05T09:29:24;6.50;99.90
51914;DHT22;37940;53.002;6.930;2023-02-05T09:31:50;6.50;99.90
51914;DHT22;37940;53.002;6.930;2023-02-05T09:34:16;6.50;99.90
51914;DHT22;37940;53.002;6.930;2023-02-05T09:36:42;6.50;99.90
51914;DHT22;37940;53.002;6.930;2023-02-05T09:39:09;6.60;99.90
51914;DHT22;37940;53.002;6.930;2023-02-05T09:41:57;6.50;99.90
51914;DHT22;37940;53.002;6.930;2023-02-05T09:45:04;6.50;99.90
51914;DHT22;37940;53.002;6.930;2023-02-05T09:47:37;6.60;99.90
51914;DHT22;37940;53.002;6.930;2023-02-05T09:50:15;6.60;99.90
51914;DHT22;37940;53.002;6.930;2023-02-05T09:52:45;6.60;99.90
51914;DHT22;37940;53.002;6.930;2023-02-05T09:55:28;6.70;99.90
51914;DHT22;37940;53.002;6.930;2023-02-05T09:58:03;6.70;99.90
51914;DHT22;37940;53.002;6.930;2023-02-05T10:00:44;6.80;99.90
51914;DHT22;37940;53.002;6.930;2023-02-05T10:03:27;6.70;99.90
51914;DHT22;37940;53.002;6.930;2023-02-05T10:11:19;6.80;99.90
51914;DHT22;37940;53.002;6.930;2023-02-05T10:22:28;7.00;99.90
51914;DHT22;37940;53.002;6.930;2023-02-05T10:30:55;7.10;99.90
51914;DHT22;37940;53.002;6.930;2023-02-05T10:33:39;7.10;99.90
51914;DHT22;37940;53.002;6.930;2023-02-05T10:36:10;7.20;99.90
51914;DHT22;37940;53.002;6.930;2023-02-05T10:38:43;7.30;99.90
51914;DHT22;37940;53.002;6.930;2023-02-05T10:41:35;7.30;99.90
51914;DHT22;37940;53.002;6.930;2023-02-05T10:44:19;7.20;99.90
51914;DHT22;37940;53.002;6.930;2023-02-05T10:46:49;7.30;99.90
51914;DHT22;37940;53.002;6.930;2023-02-05T10:49:28;7.30;99.90
51914;DHT22;37940;53.002;6.930;2023-02-05T10:51:55;7.40;99.90
51914;DHT22;37940;53.002;6.930;2023-02-05T10:54:28;7.50;99.90
51914;DHT22;37940;53.002;6.930;2023-02-05T10:56:55;7.50;99.90
51914;DHT22;37940;53.002;6.930;2023-02-05T10:59:26;7.60;99.90
51914;DHT22;37940;53.002;6.930;2023-02-05T11:01:54;7.70;99.90
51914;DHT22;37940;53.002;6.930;2023-02-05T11:04:47;7.70;99.90
51914;DHT22;37940;53.002;6.930;2023-02-05T11:07:42;7.60;99.90
51914;DHT22;37940;53.002;6.930;2023-02-05T11:13:13;7.50;99.90
51914;DHT22;37940;53.002;6.930;2023-02-05T11:15:52;7.50;99.90
51914;DHT22;37940;53.002;6.930;2023-02-05T11:18:23;7.60;99.90
51914;DHT22;37940;53.002;6.930;2023-02-05T11:21:15;7.60;99.90
51914;DHT22;37940;53.002;6.930;2023-02-05T11:23:53;7.80;99.90
51914;DHT22;37940;53.002;6.930;2023-02-05T11:26:22;7.60;99.90
51914;DHT22;37940;53.002;6.930;2023-02-05T11:28:48;7.60;99.90
51914;DHT22;37940;53.002;6.930;2023-02-05T11:31:28;7.60;99.90
51914;DHT22;37940;53.002;6.930;2023-02-05T11:34:09;7.70;99.90
51914;DHT22;37940;53.002;6.930;2023-02-05T11:36:38;7.70;99.90
51914;DHT22;37940;53.002;6.930;2023-02-05T11:39:26;7.70;99.90
51914;DHT22;37940;53.002;6.930;2023-02-05T11:41:53;7.70;99.90
51914;DHT22;37940;53.002;6.930;2023-02-05T11:44:25;7.70;99.90
51914;DHT22;37940;53.002;6.930;2023-02-05T11:46:53;7.80;99.90
51914;DHT22;37940;53.002;6.930;2023-02-05T11:49:33;7.80;99.90
51914;DHT22;37940;53.002;6.930;2023-02-05T11:52:13;7.80;99.90
51914;DHT22;37940;53.002;6.930;2023-02-05T11:54:44;7.90;99.90
51914;DHT22;37940;53.002;6.930;2023-02-05T11:59:57;7.90;99.90
51914;DHT22;37940;53.002;6.930;2023-02-05T12:02:30;7.80;99.90
51914;DHT22;37940;53.002;6.930;2023-02-05T12:07:46;7.80;99.90
51914;DHT22;37940;53.002;6.930;2023-02-05T12:10:44;7.90;99.90
51914;DHT22;37940;53.002;6.930;2023-02-05T12:19:22;8.10;99.90
51914;DHT22;37940;53.002;6.930;2023-02-05T12:21:49;8.10;99.90
51914;DHT22;37940;53.002;6.930;2023-02-05T12:41:21;8.10;99.90
51914;DHT22;37940;53.002;6.930;2023-02-05T12:43:52;8.10;99.90
51914;DHT22;37940;53.002;6.930;2023-02-05T13:02:17;8.10;99.90
51914;DHT22;37940;53.002;6.930;2023-02-05T13:08:01;8.10;99.90
51914;DHT22;37940;53.002;6.930;2023-02-05T13:13:35;8.10;99.90
51914;DHT22;37940;53.002;6.930;2023-02-05T13:16:10;8.10;99.90
51914;DHT22;37940;53.002;6.930;2023-02-05T13:18:41;8.10;99.90
51914;DHT22;37940;53.002;6.930;2023-02-05T13:21:17;8.10;99.90
51914;DHT22;37940;53.002;6.930;2023-02-05T13:24:20;8.00;99.90
51914;DHT22;37940;53.002;6.930;2023-02-05T13:27:25;7.90;99.90
51914;DHT22;37940;53.002;6.930;2023-02-05T13:30:25;8.00;99.90
51914;DHT22;37940;53.002;6.930;2023-02-05T13:32:56;7.90;99.90
51914;DHT22;37940;53.002;6.930;2023-02-05T13:35:23;7.90;99.90
51914;DHT22;37940;53.002;6.930;2023-02-05T13:43:20;7.90;99.90
51914;DHT22;37940;53.002;6.930;2023-02-05T13:46:06;7.90;99.90
51914;DHT22;37940;53.002;6.930;2023-02-05T14:00:26;7.70;99.90
51914;DHT22;37940;53.002;6.930;2023-02-05T14:02:55;7.70;99.90
51914;DHT22;37940;53.002;6.930;2023-02-05T14:05:40;7.70;99.90
51914;DHT22;37940;53.002;6.930;2023-02-05T14:08:19;7.60;99.90
51914;DHT22;37940;53.002;6.930;2023-02-05T14:10:56;7.70;99.90
51914;DHT22;37940;53.002;6.930;2023-02-05T14:13:27;7.60;99.90
51914;DHT22;37940;53.002;6.930;2023-02-05T14:15:55;7.60;99.90
51914;DHT22;37940;53.002;6.930;2023-02-05T14:26:54;7.50;99.90
51914;DHT22;37940;53.002;6.930;2023-02-05T14:35:04;7.40;99.90
51914;DHT22;37940;53.002;6.930;2023-02-05T14:37:37;7.40;99.90
51914;DHT22;37940;53.002;6.930;2023-02-05T14:40:13;7.30;99.90
51914;DHT22;37940;53.002;6.930;2023-02-05T14:42:45;7.30;99.90
51914;DHT22;37940;53.002;6.930;2023-02-05T14:45:15;7.30;99.90
51914;DHT22;37940;53.002;6.930;2023-02-05T14:47:42;7.30;99.90
51914;DHT22;37940;53.002;6.930;2023-02-05T14:50:35;7.30;99.90
51914;DHT22;37940;53.002;6.930;2023-02-05T14:53:02;7.20;99.90
51914;DHT22;37940;53.002;6.930;2023-02-05T14:55:36;7.20;99.90
51914;DHT22;37940;53.002;6.930;2023-02-05T14:58:20;7.20;99.90
51914;DHT22;37940;53.002;6.930;2023-02-05T15:00:48;7.20;99.90
51914;DHT22;37940;53.002;6.930;2023-02-05T15:03:22;7.10;99.90
51914;DHT22;37940;53.002;6.930;2023-02-05T15:05:58;7.10;99.90
51914;DHT22;37940;53.002;6.930;2023-02-05T15:11:28;7.00;99.90
51914;DHT22;37940;53.002;6.930;2023-02-05T15:19:53;6.90;99.90
51914;DHT22;37940;53.002;6.930;2023-02-05T15:22:36;6.80;99.90
51914;DHT22;37940;53.002;6.930;2023-02-05T15:25:07;6.80;99.90
51914;DHT22;37940;53.002;6.930;2023-02-05T15:27:47;6.80;99.90
51914;DHT22;37940;53.002;6.930;2023-02-05T15:30:27;6.70;99.90
51914;DHT22;37940;53.002;6.930;2023-02-05T15:33:01;6.70;99.90
51914;DHT22;37940;53.002;6.930;2023-02-05T15:35:29;6.70;99.90
51914;DHT22;37940;53.002;6.930;2023-02-05T15:38:01;6.70;99.90
51914;DHT22;37940;53.002;6.930;2023-02-05T15:40:32;6.60;99.90
51914;DHT22;37940;53.002;6.930;2023-02-05T15:43:21;6.60;99.90
51914;DHT22;37940;53.002;6.930;2023-02-05T15:46:10;6.60;99.90
51914;DHT22;37940;53.002;6.930;2023-02-05T15:48:36;6.50;99.90
51914;DHT22;37940;53.002;6.930;2023-02-05T15:54:07;6.40;99.90
51914;DHT22;37940;53.002;6.930;2023-02-05T15:56:38;6.30;99.90
51914;DHT22;37940;53.002;6.930;2023-02-05T16:01:43;6.30;99.90
51914;DHT22;37940;53.002;6.930;2023-02-05T16:06:47;6.20;99.90
51914;DHT22;37940;53.002;6.930;2023-02-05T16:09:17;6.10;99.90
51914;DHT22;37940;53.002;6.930;2023-02-05T16:11:43;6.00;99.90
51914;DHT22;37940;53.002;6.930;2023-02-05T16:14:19;6.00;99.90
51914;DHT22;37940;53.002;6.930;2023-02-05T16:22:21;5.80;99.90
51914;DHT22;37940;53.002;6.930;2023-02-05T16:24:51;5.70;99.90
51914;DHT22;37940;53.002;6.930;2023-02-05T16:27:45;5.70;99.90
51914;DHT22;37940;53.002;6.930;2023-02-05T16:30:33;5.70;99.90
51914;DHT22;37940;53.002;6.930;2023-02-05T16:33:05;5.60;99.90
51914;DHT22;37940;53.002;6.930;2023-02-05T16:35:38;5.60;99.90
51914;DHT22;37940;53.002;6.930;2023-02-05T16:38:13;5.50;99.90
51914;DHT22;37940;53.002;6.930;2023-02-05T16:40:42;5.50;99.90
51914;DHT22;37940;53.002;6.930;2023-02-05T16:43:29;5.40;99.90
51914;DHT22;37940;53.002;6.930;2023-02-05T16:48:52;5.40;99.90
51914;DHT22;37940;53.002;6.930;2023-02-05T16:59:20;5.20;99.90
51914;DHT22;37940;53.002;6.930;2023-02-05T17:01:49;5.10;99.90
51914;DHT22;37940;53.002;6.930;2023-02-05T17:04:23;5.00;99.90
51914;DHT22;37940;53.002;6.930;2023-02-05T17:06:53;5.00;99.90
51914;DHT22;37940;53.002;6.930;2023-02-05T17:09:35;5.00;99.90
51914;DHT22;37940;53.002;6.930;2023-02-05T17:17:23;4.80;99.90
51914;DHT22;37940;53.002;6.930;2023-02-05T17:22:43;4.80;99.90
51914;DHT22;37940;53.002;6.930;2023-02-05T17:25:38;4.80;99.90
51914;DHT22;37940;53.002;6.930;2023-02-05T17:28:09;4.80;99.90
51914;DHT22;37940;53.002;6.930;2023-02-05T17:30:36;5.10;99.90
51914;DHT22;37940;53.002;6.930;2023-02-05T17:33:06;4.90;99.90
51914;DHT22;37940;53.002;6.930;2023-02-05T17:35:32;4.90;99.90
51914;DHT22;37940;53.002;6.930;2023-02-05T17:37:58;4.80;99.90
51914;DHT22;37940;53.002;6.930;2023-02-05T17:40:24;4.80;99.90
51914;DHT22;37940;53.002;6.930;2023-02-05T17:42:50;4.70;99.90
51914;DHT22;37940;53.002;6.930;2023-02-05T17:45:25;4.70;99.90
51914;DHT22;37940;53.002;6.930;2023-02-05T17:47:51;4.70;99.90
51914;DHT22;37940;53.002;6.930;2023-02-05T17:50:18;4.60;99.90
51914;DHT22;37940;53.002;6.930;2023-02-05T17:52:45;4.60;99.90
51914;DHT22;37940;53.002;6.930;2023-02-05T17:55:13;4.60;99.90
51914;DHT22;37940;53.002;6.930;2023-02-05T17:57:40;4.60;99.90
51914;DHT22;37940;53.002;6.930;2023-02-05T18:00:44;4.60;99.90
51914;DHT22;37940;53.002;6.930;2023-02-05T18:03:03;4.60;99.90
51914;DHT22;37940;53.002;6.930;2023-02-05T18:05:29;4.50;99.90
51914;DHT22;37940;53.002;6.930;2023-02-05T18:07:57;4.50;99.90
51914;DHT22;37940;53.002;6.930;2023-02-05T18:10:28;4.50;99.90
51914;DHT22;37940;53.002;6.930;2023-02-05T18:12:56;4.40;99.90
51914;DHT22;37940;53.002;6.930;2023-02-05T18:15:23;4.40;99.90
51914;DHT22;37940;53.002;6.930;2023-02-05T18:17:50;4.30;99.90
51914;DHT22;37940;53.002;6.930;2023-02-05T18:20:16;4.30;99.90
51914;DHT22;37940;53.002;6.930;2023-02-05T18:22:46;4.30;99.90
51914;DHT22;37940;53.002;6.930;2023-02-05T18:25:11;4.30;99.90
51914;DHT22;37940;53.002;6.930;2023-02-05T18:27:38;4.30;99.90
51914;DHT22;37940;53.002;6.930;2023-02-05T18:30:05;4.20;99.90
51914;DHT22;37940;53.002;6.930;2023-02-05T18:32:31;4.20;99.90
51914;DHT22;37940;53.002;6.930;2023-02-05T18:34:57;4.10;99.90
51914;DHT22;37940;53.002;6.930;2023-02-05T18:37:23;4.10;99.90
51914;DHT22;37940;53.002;6.930;2023-02-05T18:39:49;4.00;99.90
51914;DHT22;37940;53.002;6.930;2023-02-05T18:42:16;4.00;99.90
51914;DHT22;37940;53.002;6.930;2023-02-05T18:44:42;3.90;99.90
51914;DHT22;37940;53.002;6.930;2023-02-05T18:47:08;3.90;99.90
51914;DHT22;37940;53.002;6.930;2023-02-05T18:49:35;3.90;99.90
51914;DHT22;37940;53.002;6.930;2023-02-05T18:52:01;3.90;99.90